createdAt,value
2022-10-23T00:01:15.588Z,11.10
2022-10-23T00:03:43.578Z,10.90
2022-10-23T00:06:11.785Z,10.90
2022-10-23T00:08:40.418Z,10.90
2022-10-23T00:11:09.810Z,10.80
2022-10-23T00:13:38.387Z,10.90
2022-10-23T00:16:09.391Z,10.90
2022-10-23T00:18:40.069Z,11.00
2022-10-23T00:21:10.648Z,10.90
2022-10-23T00:23:38.999Z,10.90
2022-10-23T00:26:08.128Z,10.90
2022-10-23T00:28:36.213Z,10.90
2022-10-23T00:31:04.500Z,10.90
2022-10-23T00:33:33.361Z,10.80
2022-10-23T00:36:05.670Z,10.80
2022-10-23T00:38:33.700Z,10.80
2022-10-23T00:41:01.838Z,10.80
2022-10-23T00:43:31.716Z,10.80
2022-10-23T00:46:00.030Z,10.80
2022-10-23T00:48:29.202Z,10.70
2022-10-23T00:50:57.655Z,10.70
2022-10-23T00:53:27.017Z,10.70
2022-10-23T00:55:57.648Z,10.70
2022-10-23T00:58:25.699Z,10.70
2022-10-23T01:00:55.986Z,10.70
2022-10-23T01:03:28.679Z,10.70
2022-10-23T01:06:04.128Z,10.70
2022-10-23T01:08:47.872Z,10.70
2022-10-23T01:11:21.355Z,10.60
2022-10-23T01:13:59.297Z,10.70
2022-10-23T01:16:34.839Z,10.60
2022-10-23T01:19:10.536Z,10.50
2022-10-23T01:21:50.181Z,10.50
2022-10-23T01:24:36.345Z,10.50
2022-10-23T01:27:25.105Z,10.50
2022-10-23T01:30:03.179Z,10.40
2022-10-23T01:32:40.279Z,10.40
2022-10-23T01:35:14.462Z,10.40
2022-10-23T01:37:46.244Z,10.30
2022-10-23T01:40:21.304Z,10.30
2022-10-23T01:42:54.954Z,10.30
2022-10-23T01:45:28.845Z,10.20
2022-10-23T01:47:57.923Z,10.20
2022-10-23T01:50:27.741Z,10.20
2022-10-23T01:52:55.824Z,10.20
2022-10-23T01:55:25.803Z,10.20
2022-10-23T01:57:55.845Z,10.20
2022-10-23T02:00:23.777Z,10.10
2022-10-23T02:02:53.662Z,10.10
2022-10-23T02:05:25.074Z,10.10
2022-10-23T02:07:53.871Z,10.10
2022-10-23T02:10:22.515Z,10.10
2022-10-23T02:13:00.187Z,10.10
2022-10-23T02:15:31.960Z,10.10
2022-10-23T02:18:09.603Z,10.00
2022-10-23T02:20:41.779Z,10.00
2022-10-23T02:23:18.040Z,9.90
2022-10-23T02:25:51.870Z,9.90
2022-10-23T02:28:26.085Z,9.90
2022-10-23T02:30:56.200Z,9.80
2022-10-23T02:33:27.838Z,9.80
2022-10-23T02:35:55.991Z,9.80
2022-10-23T02:38:36.158Z,9.70
2022-10-23T02:41:19.819Z,9.70
2022-10-23T02:44:03.110Z,9.70
2022-10-23T02:46:39.547Z,9.70
2022-10-23T02:49:14.496Z,9.70
2022-10-23T02:51:55.332Z,9.70
2022-10-23T02:54:37.440Z,9.70
2022-10-23T02:57:14.869Z,9.80
2022-10-23T02:59:46.658Z,9.60
2022-10-23T03:02:23.269Z,9.80
2022-10-23T03:04:52.984Z,9.80
2022-10-23T03:07:22.063Z,9.80
2022-10-23T03:09:49.983Z,9.80
2022-10-23T03:12:17.940Z,9.80
2022-10-23T03:14:47.220Z,9.80
2022-10-23T03:17:15.216Z,9.80
2022-10-23T03:19:43.162Z,9.80
2022-10-23T03:22:11.149Z,9.80
2022-10-23T03:24:39.094Z,9.80
2022-10-23T03:27:07.077Z,9.80
2022-10-23T03:29:35.111Z,9.80
2022-10-23T03:32:05.112Z,9.80
2022-10-23T03:34:33.143Z,9.80
2022-10-23T03:37:01.303Z,9.90
2022-10-23T03:39:29.395Z,10.00
2022-10-23T03:41:57.342Z,9.90
2022-10-23T03:44:25.297Z,9.90
2022-10-23T03:46:53.226Z,9.90
2022-10-23T03:49:22.722Z,9.80
2022-10-23T03:51:52.579Z,9.80
2022-10-23T03:54:22.058Z,9.80
2022-10-23T03:56:53.619Z,9.80
2022-10-23T03:59:24.649Z,9.80
2022-10-23T04:01:52.827Z,9.80
2022-10-23T04:04:22.316Z,9.80
2022-10-23T04:06:50.472Z,9.80
2022-10-23T04:09:18.724Z,9.90
2022-10-23T04:11:46.679Z,9.80
2022-10-23T04:14:15.465Z,10.00
2022-10-23T04:16:43.519Z,10.00
2022-10-23T04:19:11.541Z,10.00
2022-10-23T04:21:40.867Z,10.10
2022-10-23T04:24:09.040Z,10.10
2022-10-23T04:26:37.095Z,10.20
2022-10-23T04:29:05.085Z,10.20
2022-10-23T04:31:33.104Z,10.30
2022-10-23T04:34:01.132Z,10.40
2022-10-23T04:36:29.154Z,10.30
2022-10-23T04:38:58.438Z,10.40
2022-10-23T04:41:26.408Z,10.40
2022-10-23T04:43:54.367Z,10.40
2022-10-23T04:46:22.301Z,10.40
2022-10-23T04:48:50.304Z,10.50
2022-10-23T04:51:18.305Z,10.40
2022-10-23T04:53:46.244Z,10.60
2022-10-23T04:56:16.516Z,10.70
2022-10-23T04:58:45.006Z,10.40
2022-10-23T05:01:13.200Z,10.40
2022-10-23T05:03:41.288Z,10.50
2022-10-23T05:06:09.356Z,10.50
2022-10-23T05:08:37.392Z,10.50
2022-10-23T05:11:05.894Z,10.50
2022-10-23T05:13:35.307Z,10.60
2022-10-23T05:16:03.261Z,10.70
2022-10-23T05:18:35.249Z,10.80
2022-10-23T05:21:07.540Z,10.80
2022-10-23T05:23:39.327Z,10.80
2022-10-23T05:26:07.262Z,10.80
2022-10-23T05:28:36.639Z,10.70
2022-10-23T05:31:06.163Z,10.70
2022-10-23T05:33:35.880Z,10.70
2022-10-23T05:36:04.821Z,10.80
2022-10-23T05:38:35.290Z,10.80
2022-10-23T05:41:03.633Z,10.80
2022-10-23T05:43:31.793Z,10.90
2022-10-23T05:46:04.923Z,10.90
2022-10-23T05:48:35.187Z,10.90
2022-10-23T05:51:07.380Z,10.90
2022-10-23T05:53:38.699Z,11.00
2022-10-23T05:56:10.542Z,11.00
2022-10-23T05:58:38.689Z,11.00
2022-10-23T06:01:10.261Z,11.00
2022-10-23T06:03:39.363Z,11.00
2022-10-23T06:06:08.260Z,11.00
2022-10-23T06:08:36.580Z,11.00
2022-10-23T06:11:09.353Z,11.10
2022-10-23T06:13:37.565Z,11.20
2022-10-23T06:16:16.658Z,11.20
2022-10-23T06:18:46.048Z,11.30
2022-10-23T06:21:15.030Z,11.30
2022-10-23T06:23:44.467Z,11.40
2022-10-23T06:26:13.968Z,11.40
2022-10-23T06:28:42.206Z,11.50
2022-10-23T06:31:13.237Z,11.50
2022-10-23T06:33:41.379Z,11.60
2022-10-23T06:36:10.658Z,11.50
2022-10-23T06:38:40.548Z,11.80
2022-10-23T06:41:13.481Z,11.80
2022-10-23T06:43:41.517Z,11.90
2022-10-23T06:46:09.986Z,12.00
2022-10-23T06:48:39.428Z,12.10
2022-10-23T06:51:08.944Z,12.20
2022-10-23T06:53:37.511Z,12.30
2022-10-23T06:56:07.728Z,12.40
2022-10-23T06:58:37.165Z,12.50
2022-10-23T07:01:07.483Z,12.70
2022-10-23T07:03:35.910Z,12.80
2022-10-23T07:06:06.854Z,12.90
2022-10-23T07:08:35.136Z,13.00
2022-10-23T07:11:05.668Z,13.10
2022-10-23T07:13:34.950Z,13.20
2022-10-23T07:16:11.871Z,13.30
2022-10-23T07:18:39.873Z,13.40
2022-10-23T07:21:09.537Z,13.50
2022-10-23T07:23:37.916Z,13.70
2022-10-23T07:26:09.825Z,13.80
2022-10-23T07:28:38.772Z,13.80
2022-10-23T07:31:07.015Z,13.90
2022-10-23T07:33:35.296Z,14.00
2022-10-23T07:36:05.812Z,14.10
2022-10-23T07:38:36.128Z,14.20
2022-10-23T07:41:05.839Z,14.20
2022-10-23T07:43:35.879Z,14.30
2022-10-23T07:46:03.955Z,14.50
2022-10-23T07:48:32.187Z,14.50
2022-10-23T07:51:01.925Z,14.60
2022-10-23T07:53:30.512Z,14.70
2022-10-23T07:56:01.950Z,14.80
2022-10-23T07:58:31.475Z,15.00
2022-10-23T08:01:01.273Z,15.20
2022-10-23T08:03:31.622Z,15.50
2022-10-23T08:06:00.228Z,15.70
2022-10-23T08:08:28.231Z,16.00
2022-10-23T08:10:56.846Z,16.30
2022-10-23T08:13:26.265Z,16.80
2022-10-23T08:15:54.391Z,17.20
2022-10-23T08:18:22.371Z,17.30
2022-10-23T08:20:52.334Z,17.40
2022-10-23T08:23:21.264Z,17.40
2022-10-23T08:25:49.203Z,17.40
2022-10-23T08:28:17.646Z,17.30
2022-10-23T08:30:46.987Z,17.10
2022-10-23T08:33:15.096Z,17.00
2022-10-23T08:35:43.057Z,16.90
2022-10-23T08:38:11.857Z,16.80
2022-10-23T08:40:45.962Z,16.70
2022-10-23T08:43:18.514Z,16.60
2022-10-23T08:45:50.806Z,16.50
2022-10-23T08:48:24.273Z,16.50
2022-10-23T08:50:56.379Z,16.50
2022-10-23T08:53:30.244Z,16.50
2022-10-23T08:56:04.187Z,16.50
2022-10-23T08:58:40.096Z,16.50
2022-10-23T09:01:35.640Z,16.50
2022-10-23T09:04:07.000Z,16.50
2022-10-23T09:06:40.552Z,16.40
2022-10-23T09:09:29.095Z,16.50
2022-10-23T09:12:04.090Z,16.50
2022-10-23T09:14:51.005Z,16.60
2022-10-23T09:17:25.469Z,16.80
2022-10-23T09:20:01.464Z,17.50
2022-10-23T09:22:30.129Z,18.30
2022-10-23T09:24:58.107Z,18.90
2022-10-23T09:27:26.098Z,19.40
2022-10-23T09:29:56.503Z,19.60
2022-10-23T09:32:36.010Z,19.90
2022-10-23T09:35:04.289Z,20.30
2022-10-23T09:37:34.369Z,20.80
2022-10-23T09:40:18.018Z,21.00
2022-10-23T09:42:57.945Z,21.10
2022-10-23T09:45:28.765Z,21.20
2022-10-23T09:48:12.834Z,21.20
2022-10-23T09:50:49.303Z,21.40
2022-10-23T09:53:27.801Z,21.50
2022-10-23T09:55:57.604Z,21.40
2022-10-23T09:58:32.374Z,21.20
2022-10-23T10:01:00.571Z,21.10
2022-10-23T10:03:30.269Z,20.90
2022-10-23T10:06:00.492Z,20.90
2022-10-23T10:08:37.423Z,21.10
2022-10-23T10:11:12.526Z,21.00
2022-10-23T10:14:09.161Z,21.00
2022-10-23T10:16:48.773Z,20.90
2022-10-23T10:19:28.357Z,21.00
2022-10-23T10:22:04.900Z,20.90
2022-10-23T10:24:39.935Z,20.90
2022-10-23T10:27:15.543Z,20.90
2022-10-23T10:29:57.628Z,20.90
2022-10-23T10:32:34.785Z,20.90
2022-10-23T10:35:24.964Z,20.70
2022-10-23T10:38:18.072Z,20.40
2022-10-23T10:40:52.902Z,20.30
2022-10-23T10:43:32.723Z,20.20
2022-10-23T10:46:07.044Z,20.30
2022-10-23T10:48:47.120Z,20.30
2022-10-23T10:51:27.346Z,20.30
2022-10-23T10:54:19.458Z,20.30
2022-10-23T10:56:49.413Z,20.20
2022-10-23T10:59:22.789Z,20.10
2022-10-23T11:01:55.368Z,19.90
2022-10-23T11:04:33.144Z,19.80
2022-10-23T11:07:08.748Z,19.60
2022-10-23T11:09:36.798Z,19.40
2022-10-23T11:12:05.179Z,19.30
2022-10-23T11:14:35.518Z,19.10
2022-10-23T11:17:09.263Z,19.10
2022-10-23T11:19:42.617Z,19.00
2022-10-23T11:22:19.772Z,19.10
2022-10-23T11:25:15.977Z,19.20
2022-10-23T11:28:27.289Z,19.30
2022-10-23T11:31:12.171Z,19.30
2022-10-23T11:34:31.012Z,19.40
2022-10-23T11:37:02.969Z,19.50
2022-10-23T11:39:33.794Z,19.60
2022-10-23T11:42:14.955Z,19.60
2022-10-23T11:44:45.517Z,19.70
2022-10-23T11:47:39.794Z,19.70
2022-10-23T11:50:26.024Z,19.70
2022-10-23T11:53:13.546Z,19.60
2022-10-23T11:55:59.285Z,19.60
2022-10-23T11:58:32.087Z,19.50
2022-10-23T12:01:04.863Z,19.50
2022-10-23T12:03:41.645Z,19.40
2022-10-23T12:06:22.528Z,19.30
2022-10-23T12:08:55.308Z,19.20
2022-10-23T12:11:42.341Z,19.10
2022-10-23T12:14:29.551Z,19.00
2022-10-23T12:16:57.626Z,19.00
2022-10-23T12:19:27.931Z,18.90
2022-10-23T12:21:58.979Z,18.70
2022-10-23T12:24:57.802Z,18.60
2022-10-23T12:27:33.238Z,18.50
2022-10-23T12:30:27.119Z,18.40
2022-10-23T12:33:17.635Z,18.30
2022-10-23T12:36:18.309Z,18.20
2022-10-23T12:38:47.695Z,18.20
2022-10-23T12:41:22.538Z,18.10
2022-10-23T12:43:56.004Z,18.10
2022-10-23T12:46:31.489Z,18.00
2022-10-23T12:49:01.978Z,18.00
2022-10-23T12:51:32.864Z,18.10
2022-10-23T12:54:01.935Z,18.10
2022-10-23T12:56:36.597Z,18.20
2022-10-23T12:59:14.691Z,18.00
2022-10-23T13:01:43.473Z,18.10
2022-10-23T13:04:24.244Z,18.00
2022-10-23T13:06:53.880Z,18.00
2022-10-23T13:09:25.599Z,18.00
2022-10-23T13:11:53.962Z,18.00
2022-10-23T13:14:34.921Z,18.10
2022-10-23T13:17:04.814Z,17.90
2022-10-23T13:19:33.317Z,17.90
2022-10-23T13:22:02.496Z,17.90
2022-10-23T13:24:32.154Z,17.90
2022-10-23T13:27:00.275Z,17.90
2022-10-23T13:29:30.646Z,17.80
2022-10-23T13:32:11.653Z,17.80
2022-10-23T13:34:39.738Z,17.70
2022-10-23T13:37:24.993Z,17.60
2022-10-23T13:40:02.509Z,17.60
2022-10-23T13:42:30.650Z,17.60
2022-10-23T13:44:58.764Z,17.70
2022-10-23T13:47:29.132Z,17.70
2022-10-23T13:49:57.127Z,17.90
2022-10-23T13:52:25.391Z,18.00
2022-10-23T13:54:53.363Z,18.10
2022-10-23T13:57:21.434Z,18.20
2022-10-23T13:59:49.529Z,18.20
2022-10-23T14:02:21.248Z,18.10
2022-10-23T14:04:53.178Z,18.10
2022-10-23T14:07:21.298Z,18.10
2022-10-23T14:09:50.645Z,18.10
2022-10-23T14:12:18.926Z,18.00
2022-10-23T14:14:51.468Z,18.00
2022-10-23T14:17:19.723Z,18.00
2022-10-23T14:19:48.334Z,18.00
2022-10-23T14:22:18.076Z,18.00
2022-10-23T14:24:46.104Z,18.00
2022-10-23T14:27:14.135Z,18.00
2022-10-23T14:29:44.454Z,18.00
2022-10-23T14:32:12.538Z,18.00
2022-10-23T14:34:43.679Z,18.00
2022-10-23T14:37:34.332Z,18.00
2022-10-23T14:40:02.435Z,18.00
2022-10-23T14:42:34.128Z,17.90
2022-10-23T14:45:02.818Z,17.90
2022-10-23T14:47:31.068Z,17.90
2022-10-23T14:49:59.266Z,17.80
2022-10-23T14:52:27.249Z,17.70
2022-10-23T14:54:56.786Z,17.60
2022-10-23T14:57:24.907Z,17.50
2022-10-23T14:59:52.902Z,17.50
2022-10-23T15:02:20.993Z,17.40
2022-10-23T15:04:49.016Z,17.30
2022-10-23T15:07:17.283Z,17.30
2022-10-23T15:09:45.242Z,17.30
2022-10-23T15:12:14.688Z,17.30
2022-10-23T15:14:42.702Z,17.30
2022-10-23T15:17:15.339Z,17.20
2022-10-23T15:19:43.833Z,17.20
2022-10-23T15:22:11.868Z,17.10
2022-10-23T15:24:39.893Z,17.10
2022-10-23T15:29:37.173Z,17.10
2022-10-23T15:32:07.718Z,17.00
2022-10-23T15:34:37.515Z,17.00
2022-10-23T15:37:06.060Z,17.00
2022-10-23T15:39:35.530Z,16.90
2022-10-23T15:42:05.180Z,16.90
2022-10-23T15:44:34.180Z,16.80
2022-10-23T15:47:03.697Z,16.80
2022-10-23T15:49:32.604Z,16.70
2022-10-23T15:52:00.739Z,16.70
2022-10-23T15:54:31.935Z,16.60
2022-10-23T15:57:01.775Z,16.50
2022-10-23T15:59:32.066Z,16.40
2022-10-23T16:02:00.626Z,16.40
2022-10-23T16:04:30.205Z,16.30
2022-10-23T16:06:58.298Z,16.20
2022-10-23T16:09:26.701Z,16.30
2022-10-23T16:11:54.772Z,16.20
2022-10-23T16:14:22.908Z,16.20
2022-10-23T16:16:51.074Z,16.10
2022-10-23T16:19:19.390Z,16.00
2022-10-23T16:21:48.852Z,15.90
2022-10-23T16:24:17.003Z,15.90
2022-10-23T16:26:50.188Z,15.80
2022-10-23T16:29:18.519Z,15.80
2022-10-23T16:31:46.642Z,15.80
2022-10-23T16:34:14.685Z,15.80
2022-10-23T16:36:43.032Z,15.80
2022-10-23T16:39:13.486Z,15.80
2022-10-23T16:41:41.522Z,15.80
2022-10-23T16:44:09.506Z,15.80
2022-10-23T16:46:39.018Z,15.80
2022-10-23T16:49:08.447Z,15.80
2022-10-23T16:51:37.896Z,15.80
2022-10-23T16:54:05.884Z,15.70
2022-10-23T16:56:35.209Z,15.80
2022-10-23T16:59:03.281Z,15.70
2022-10-23T17:01:32.990Z,15.70
2022-10-23T17:04:01.825Z,15.70
2022-10-23T17:06:31.734Z,15.80
2022-10-23T17:09:00.649Z,15.90
2022-10-23T17:11:30.082Z,16.00
2022-10-23T17:14:00.951Z,16.00
2022-10-23T17:16:30.678Z,15.90
2022-10-23T17:18:58.877Z,15.80
2022-10-23T17:21:27.097Z,15.70
2022-10-23T17:23:55.154Z,15.60
2022-10-23T17:26:23.692Z,15.60
2022-10-23T17:28:51.854Z,15.50
2022-10-23T17:31:23.772Z,15.40
2022-10-23T17:33:54.044Z,15.30
2022-10-23T17:36:22.857Z,15.10
2022-10-23T17:38:51.418Z,15.10
2022-10-23T17:41:21.414Z,14.90
2022-10-23T17:43:49.776Z,14.80
2022-10-23T17:46:19.945Z,14.80
2022-10-23T17:48:47.935Z,14.80
2022-10-23T17:51:17.805Z,14.70
2022-10-23T17:53:48.018Z,14.70
2022-10-23T17:56:19.156Z,14.70
2022-10-23T17:58:50.301Z,14.70
2022-10-23T18:01:22.598Z,14.70
2022-10-23T18:03:50.765Z,14.70
2022-10-23T18:06:24.459Z,14.70
2022-10-23T18:08:56.352Z,14.70
2022-10-23T18:11:27.254Z,14.70
2022-10-23T18:13:55.867Z,14.80
2022-10-23T18:16:26.102Z,14.80
2022-10-23T18:18:54.311Z,14.80
2022-10-23T18:21:24.332Z,14.80
2022-10-23T18:23:53.232Z,14.80
2022-10-23T18:26:24.153Z,14.70
2022-10-23T18:28:55.460Z,14.70
2022-10-23T18:31:27.121Z,14.70
2022-10-23T18:33:57.783Z,14.70
2022-10-23T18:36:29.132Z,14.70
2022-10-23T18:38:57.616Z,14.70
2022-10-23T18:41:25.836Z,14.70
2022-10-23T18:43:55.154Z,14.70
2022-10-23T18:46:24.729Z,14.70
2022-10-23T18:48:52.981Z,14.70
2022-10-23T18:51:23.708Z,14.70
2022-10-23T18:53:52.418Z,14.60
2022-10-23T18:56:23.675Z,14.60
2022-10-23T18:58:53.059Z,14.60
2022-10-23T19:01:22.592Z,14.60
2022-10-23T19:03:52.376Z,14.60
2022-10-23T19:06:21.329Z,14.60
2022-10-23T19:08:49.786Z,14.60
2022-10-23T19:11:19.209Z,14.60
2022-10-23T19:13:47.437Z,14.60
2022-10-23T19:16:19.460Z,14.60
2022-10-23T19:18:53.866Z,14.70
2022-10-23T19:21:25.396Z,14.70
2022-10-23T19:23:54.531Z,14.70
2022-10-23T19:26:22.646Z,14.70
2022-10-23T19:28:50.982Z,15.00
2022-10-23T19:31:19.506Z,14.70
2022-10-23T19:33:47.804Z,14.70
2022-10-23T19:36:19.686Z,14.70
2022-10-23T19:38:50.571Z,14.70
2022-10-23T19:41:18.942Z,14.70
2022-10-23T19:43:47.161Z,14.70
2022-10-23T19:46:16.205Z,14.70
2022-10-23T19:48:45.100Z,14.70
2022-10-23T19:51:14.277Z,14.60
2022-10-23T19:53:43.726Z,14.70
2022-10-23T19:56:13.379Z,14.60
2022-10-23T19:58:41.836Z,14.60
2022-10-23T20:01:12.212Z,14.60
2022-10-23T20:03:41.904Z,14.50
2022-10-23T20:06:12.240Z,14.50
2022-10-23T20:08:41.000Z,14.50
2022-10-23T20:11:11.017Z,14.40
2022-10-23T20:13:39.093Z,14.40
2022-10-23T20:16:08.285Z,14.40
2022-10-23T20:18:36.647Z,14.40
2022-10-23T20:21:05.264Z,14.40
2022-10-23T20:23:33.519Z,14.40
2022-10-23T20:26:06.648Z,14.30
2022-10-23T20:28:37.305Z,14.30
2022-10-23T20:31:09.431Z,14.30
2022-10-23T20:33:37.951Z,14.30
2022-10-23T20:36:08.213Z,14.40
2022-10-23T20:38:36.595Z,14.40
2022-10-23T20:41:05.837Z,14.40
2022-10-23T20:43:35.564Z,14.40
2022-10-23T20:46:07.467Z,14.40
2022-10-23T20:48:36.698Z,14.40
2022-10-23T20:51:05.343Z,14.40
2022-10-23T20:53:33.656Z,14.50
2022-10-23T20:56:04.919Z,14.40
2022-10-23T20:58:33.020Z,14.40
2022-10-23T21:01:05.785Z,14.50
2022-10-23T21:03:34.101Z,14.40
2022-10-23T21:06:06.244Z,14.50
2022-10-23T21:08:35.048Z,14.50
2022-10-23T21:11:03.230Z,14.60
2022-10-23T21:13:32.244Z,14.60
2022-10-23T21:16:00.429Z,14.60
2022-10-23T21:18:44.833Z,14.60
2022-10-23T21:21:14.367Z,14.60
2022-10-23T21:23:42.461Z,14.50
2022-10-23T21:26:10.534Z,14.50
2022-10-23T21:28:40.008Z,14.50
2022-10-23T21:31:09.680Z,14.60
2022-10-23T21:33:39.585Z,14.60
2022-10-23T21:36:15.402Z,14.60
2022-10-23T21:38:43.649Z,14.70
2022-10-23T21:41:14.374Z,14.70
2022-10-23T21:43:42.737Z,14.70
2022-10-23T21:46:14.556Z,14.70
2022-10-23T21:48:45.053Z,14.70
2022-10-23T21:51:18.142Z,14.70
2022-10-23T21:53:46.211Z,14.80
2022-10-23T21:56:25.381Z,14.80
2022-10-23T21:58:53.619Z,14.80
2022-10-23T22:01:22.253Z,14.90
2022-10-23T22:03:51.899Z,14.90
2022-10-23T22:06:21.258Z,14.90
2022-10-23T22:08:49.424Z,14.90
2022-10-23T22:11:17.986Z,14.90
2022-10-23T22:13:46.879Z,14.90
2022-10-23T22:16:16.127Z,14.90
2022-10-23T22:18:45.131Z,14.90
2022-10-23T22:21:17.576Z,15.00
2022-10-23T22:23:46.127Z,15.00
2022-10-23T22:26:22.622Z,15.00
2022-10-23T22:28:51.509Z,15.10
2022-10-23T22:31:21.760Z,15.10
2022-10-23T22:33:49.832Z,15.10
2022-10-23T22:36:19.534Z,15.20
2022-10-23T22:38:47.928Z,15.20
2022-10-23T22:41:16.844Z,15.30
2022-10-23T22:43:45.287Z,15.30
2022-10-23T22:46:16.070Z,15.40
2022-10-23T22:48:44.738Z,15.40
2022-10-23T22:51:14.719Z,15.40
2022-10-23T22:53:44.840Z,15.50
2022-10-23T22:56:15.303Z,15.50
2022-10-23T22:58:43.555Z,15.60
2022-10-23T23:01:15.095Z,15.70
2022-10-23T23:03:43.887Z,15.80
2022-10-23T23:06:12.338Z,15.80
2022-10-23T23:08:41.385Z,15.80
2022-10-23T23:11:13.961Z,15.70
2022-10-23T23:13:42.509Z,15.70
2022-10-23T23:16:21.597Z,15.70
2022-10-23T23:18:50.224Z,15.60
2022-10-23T23:21:19.033Z,15.50
2022-10-23T23:23:49.433Z,15.50
2022-10-23T23:26:19.195Z,15.50
2022-10-23T23:28:47.236Z,15.50
2022-10-23T23:31:18.346Z,15.40
2022-10-23T23:33:46.541Z,15.50
2022-10-23T23:36:17.922Z,15.50
2022-10-23T23:38:46.007Z,15.40
2022-10-23T23:41:14.843Z,15.30
2022-10-23T23:43:45.226Z,15.20
2022-10-23T23:46:14.080Z,15.20
2022-10-23T23:48:47.471Z,15.20
2022-10-23T23:51:16.764Z,15.20
2022-10-23T23:53:44.740Z,15.20
2022-10-23T23:56:12.765Z,15.20
2022-10-23T23:58:40.744Z,15.20
